Time;durP1;ratioP1;P1;durP2;ratioP2;P2;SDS_P1;SDS_P2;PMS_P1;PMS_P2;Temp;Humidity;BMP_temperature;BMP_pressure;BME280_temperature;BME280_humidity;BME280_pressure;Samples;Min_cycle;Max_cycle;Signal;HPM_P1;HPM_P2
2021/05/13 00:01:33;;;;;;;10.97;7.20;;;13.40;99.90;;;;;;4978081;28;20502;-85
2021/05/13 00:03:59;;;;;;;10.90;6.27;;;;;;;;;;4975977;28;20460;-84
2021/05/13 00:06:26;;;;;;;7.80;6.03;;;13.50;99.90;;;;;;4975353;28;20441;-84
2021/05/13 00:08:55;;;;;;;9.03;6.77;;;;;;;;;;4993244;28;20440;-84
2021/05/13 00:11:28;;;;;;;6.13;5.53;;;13.50;99.90;;;;;;4972337;28;20469;-85
2021/05/13 00:13:54;;;;;;;10.50;5.83;;;;;;;;;;4974493;28;20524;-84
2021/05/13 00:16:22;;;;;;;7.00;6.03;;;13.40;99.90;;;;;;4976016;28;20453;-84
2021/05/13 00:18:48;;;;;;;8.33;6.40;;;13.00;99.90;;;;;;4982295;28;20516;-85
2021/05/13 00:21:14;;;;;;;6.80;5.87;;;12.40;99.90;;;;;;4995142;28;20464;-84
2021/05/13 00:23:42;;;;;;;12.37;5.90;;;13.30;99.90;;;;;;4995091;28;20454;-84
2021/05/13 00:26:08;;;;;;;9.20;6.70;;;13.40;99.90;;;;;;4995553;28;20469;-84
2021/05/13 00:28:34;;;;;;;8.90;6.77;;;12.60;99.90;;;;;;4988154;28;20441;-85
2021/05/13 00:31:01;;;;;;;10.00;7.67;;;13.20;99.90;;;;;;4995972;28;20452;-84
2021/05/13 00:33:27;;;;;;;9.90;7.77;;;13.20;99.90;;;;;;4996718;28;20441;-83
2021/05/13 00:35:53;;;;;;;13.80;7.83;;;13.10;99.90;;;;;;4995375;28;20842;-83
2021/05/13 00:38:19;;;;;;;9.67;8.57;;;13.20;99.90;;;;;;4995005;28;20453;-83
2021/05/13 00:40:47;;;;;;;15.00;7.83;;;;;;;;;;4996626;28;20449;-83
2021/05/13 00:43:13;;;;;;;14.50;9.57;;;12.90;99.90;;;;;;4996412;28;20449;-83
2021/05/13 00:45:41;;;;;;;12.10;8.30;;;11.70;99.90;;;;;;4996280;28;20453;-83
2021/05/13 00:48:13;;;;;;;10.87;8.33;;;12.70;99.90;;;;;;4996302;28;20457;-84
2021/05/13 00:50:39;;;;;;;9.03;7.80;;;12.80;99.90;;;;;;4993945;28;20449;-84
2021/05/13 00:53:07;;;;;;;13.77;8.30;;;12.20;99.90;;;;;;4994963;28;20556;-83
2021/05/13 00:55:34;;;;;;;9.83;8.50;;;12.20;99.90;;;;;;4995067;28;20477;-83
2021/05/13 00:58:01;;;;;;;13.70;8.20;;;12.70;99.90;;;;;;4995038;28;20955;-83
2021/05/13 01:00:38;;;;;;;11.23;8.50;;;13.10;99.90;;;;;;4995119;28;20473;-83
2021/05/13 01:03:05;;;;;;;10.50;7.60;;;12.10;99.90;;;;;;4993147;28;20433;-83
2021/05/13 01:05:33;;;;;;;11.37;7.30;;;11.50;99.90;;;;;;4977274;28;20995;-84
2021/05/13 01:08:00;;;;;;;12.87;6.67;;;11.70;99.90;;;;;;4976877;28;20449;-85
2021/05/13 01:10:27;;;;;;;18.47;7.07;;;12.00;99.90;;;;;;4982968;28;20813;-84
2021/05/13 01:12:56;;;;;;;11.90;6.87;;;11.30;99.90;;;;;;4983813;28;20952;-84
2021/05/13 01:15:25;;;;;;;10.20;6.47;;;12.00;99.90;;;;;;4983298;28;20549;-84
2021/05/13 01:18:03;;;;;;;9.60;6.50;;;12.10;99.90;;;;;;4987556;28;20484;-85
2021/05/13 01:20:30;;;;;;;11.53;8.13;;;12.00;99.90;;;;;;4986603;28;20477;-83
2021/05/13 01:22:58;;;;;;;11.80;7.83;;;11.50;99.90;;;;;;4984961;28;20449;-85
2021/05/13 01:25:26;;;;;;;12.20;5.83;;;11.70;99.90;;;;;;4978849;28;20477;-83
2021/05/13 01:27:57;;;;;;;10.10;6.53;;;11.70;99.90;;;;;;4977988;28;20801;-84
2021/05/13 01:30:23;;;;;;;10.03;6.30;;;11.60;99.90;;;;;;4979082;28;20421;-84
2021/05/13 01:32:49;;;;;;;15.23;7.53;;;11.20;99.90;;;;;;4980205;28;20455;-84
2021/05/13 01:35:15;;;;;;;14.13;7.70;;;11.80;99.90;;;;;;4983339;28;21006;-84
2021/05/13 01:37:42;;;;;;;10.10;7.50;;;11.80;99.90;;;;;;4981462;28;20482;-83
2021/05/13 01:40:10;;;;;;;9.23;7.60;;;11.60;99.90;;;;;;4982876;28;20868;-84
2021/05/13 01:42:36;;;;;;;10.80;6.80;;;12.00;99.90;;;;;;4984272;28;21001;-83
2021/05/13 01:45:03;;;;;;;9.20;7.73;;;11.30;99.90;;;;;;4987292;28;20481;-84
2021/05/13 01:47:34;;;;;;;9.93;7.67;;;11.80;99.90;;;;;;4983326;28;20453;-85
2021/05/13 01:50:01;;;;;;;15.60;10.40;;;11.70;99.90;;;;;;4980295;28;20429;-84
2021/05/13 01:52:27;;;;;;;12.07;7.63;;;11.80;99.90;;;;;;4980374;28;20449;-83
2021/05/13 01:54:53;;;;;;;9.57;6.90;;;11.50;99.90;;;;;;4980542;28;20492;-84
2021/05/13 01:57:20;;;;;;;8.83;6.40;;;11.60;99.90;;;;;;4980508;28;20452;-85
2021/05/13 01:59:46;;;;;;;8.67;7.77;;;11.30;99.90;;;;;;4980186;28;20464;-84
2021/05/13 02:02:14;;;;;;;9.73;6.67;;;11.60;99.90;;;;;;4978596;28;20955;-83
2021/05/13 02:04:40;;;;;;;11.67;7.60;;;11.80;99.90;;;;;;4977241;28;20473;-84
2021/05/13 02:07:06;;;;;;;9.03;6.67;;;11.70;99.90;;;;;;4977101;28;20551;-85
2021/05/13 02:09:32;;;;;;;14.07;7.77;;;11.70;99.90;;;;;;4977900;28;20445;-86
2021/05/13 02:11:59;;;;;;;13.70;8.83;;;11.70;99.90;;;;;;4979078;28;20457;-84
2021/05/13 02:14:26;;;;;;;14.57;8.63;;;11.80;99.90;;;;;;4980343;28;20473;-85
2021/05/13 02:16:52;;;;;;;11.87;8.47;;;11.80;99.90;;;;;;4978233;28;20457;-83
2021/05/13 02:19:18;;;;;;;19.43;10.30;;;11.40;99.90;;;;;;4978839;28;20485;-84
2021/05/13 02:21:44;;;;;;;12.53;8.73;;;11.10;99.90;;;;;;4978734;28;20491;-84
2021/05/13 02:24:11;;;;;;;13.20;8.57;;;13.00;99.90;;;;;;4979246;28;20465;-83
2021/05/13 02:26:37;;;;;;;18.03;9.80;;;12.10;99.90;;;;;;4987095;28;20404;-84
2021/05/13 02:29:04;;;;;;;12.63;8.70;;;11.60;99.90;;;;;;4979590;28;20445;-84
2021/05/13 02:31:31;;;;;;;13.10;9.03;;;11.90;99.90;;;;;;4984526;28;20456;-84
2021/05/13 02:33:57;;;;;;;12.63;8.23;;;;;;;;;;4983122;28;20475;-83
2021/05/13 02:36:23;;;;;;;10.17;7.60;;;11.70;99.90;;;;;;4978929;28;20457;-85
2021/05/13 02:38:50;;;;;;;12.10;8.20;;;11.80;99.90;;;;;;4979944;28;20511;-83
2021/05/13 02:41:18;;;;;;;15.57;9.07;;;;;;;;;;4979555;28;20424;-84
2021/05/13 02:43:45;;;;;;;15.47;7.93;;;11.80;99.90;;;;;;4978990;28;20445;-84
2021/05/13 02:46:11;;;;;;;15.13;8.20;;;12.40;99.90;;;;;;4980595;28;20477;-83
2021/05/13 02:48:38;;;;;;;11.13;7.40;;;11.30;99.90;;;;;;4979259;28;20460;-85
2021/05/13 02:51:04;;;;;;;16.03;8.93;;;;;;;;;;4980294;28;20952;-83
2021/05/13 02:53:30;;;;;;;16.97;8.07;;;11.80;99.90;;;;;;4978381;28;20446;-83
2021/05/13 02:55:57;;;;;;;8.70;7.43;;;10.80;99.90;;;;;;4977264;28;20469;-84
2021/05/13 02:58:23;;;;;;;15.00;8.37;;;11.40;99.90;;;;;;4978503;28;20488;-83
2021/05/13 03:00:53;;;;;;;15.53;7.10;;;11.60;99.90;;;;;;4976206;28;20527;-84
2021/05/13 03:03:19;;;;;;;11.37;7.70;;;11.10;99.90;;;;;;4976482;28;20487;-84
2021/05/13 03:05:47;;;;;;;13.77;8.33;;;11.60;99.90;;;;;;4958910;28;20473;-84
2021/05/13 03:08:14;;;;;;;15.97;8.77;;;11.70;99.90;;;;;;4976496;28;20438;-84
2021/05/13 03:10:44;;;;;;;11.77;7.57;;;11.60;99.90;;;;;;4976635;28;20520;-84
2021/05/13 03:13:12;;;;;;;17.40;9.73;;;11.80;99.90;;;;;;4976297;28;20461;-84
2021/05/13 03:15:38;;;;;;;10.87;8.57;;;10.70;99.90;;;;;;4975317;28;20528;-84
2021/05/13 03:18:05;;;;;;;9.10;8.20;;;11.70;99.90;;;;;;4975425;28;20453;-84
2021/05/13 03:20:36;;;;;;;11.60;7.80;;;11.50;99.90;;;;;;4976883;28;21065;-84
2021/05/13 03:23:09;;;;;;;14.93;7.90;;;10.80;99.90;;;;;;4981301;28;20453;-83
2021/05/13 03:25:37;;;;;;;12.73;8.63;;;11.10;99.90;;;;;;4980057;28;20487;-84
2021/05/13 03:28:08;;;;;;;15.10;8.70;;;11.70;99.90;;;;;;4975850;28;20506;-84
2021/05/13 03:30:35;;;;;;;8.80;7.87;;;11.80;99.90;;;;;;4975832;28;20433;-84
2021/05/13 03:33:02;;;;;;;12.63;7.90;;;11.20;99.90;;;;;;4975209;28;20488;-84
2021/05/13 03:35:28;;;;;;;9.97;8.10;;;11.90;99.90;;;;;;4974986;28;20508;-84
2021/05/13 03:37:54;;;;;;;11.00;7.30;;;11.30;99.90;;;;;;4975887;28;20450;-84
2021/05/13 03:40:21;;;;;;;11.90;8.70;;;11.30;99.90;;;;;;4975523;28;20905;-84
2021/05/13 03:42:47;;;;;;;11.53;7.60;;;12.10;99.90;;;;;;4975801;28;20441;-84
2021/05/13 03:45:14;;;;;;;11.53;8.77;;;11.70;99.90;;;;;;4975091;28;20464;-84
2021/05/13 03:47:40;;;;;;;12.13;7.17;;;12.00;99.90;;;;;;4975924;28;20510;-83
2021/05/13 03:50:07;;;;;;;10.93;7.77;;;11.80;99.90;;;;;;4975074;28;20453;-84
2021/05/13 03:52:33;;;;;;;8.97;7.70;;;12.10;99.90;;;;;;4975653;28;20449;-84
2021/05/13 03:54:59;;;;;;;8.40;7.60;;;11.80;99.90;;;;;;4974807;28;20850;-84
2021/05/13 03:57:26;;;;;;;15.50;11.37;;;11.60;99.90;;;;;;4976231;28;20464;-83
2021/05/13 03:59:55;;;;;;;52.17;32.50;;;12.00;99.90;;;;;;4975827;28;20481;-85
2021/05/13 04:02:30;;;;;;;12.07;8.50;;;11.90;99.90;;;;;;4977114;28;20524;-83
2021/05/13 04:04:56;;;;;;;13.60;9.27;;;11.30;99.90;;;;;;4978756;28;20476;-83
2021/05/13 04:07:22;;;;;;;10.47;7.90;;;11.30;99.90;;;;;;4977020;28;20479;-84
2021/05/13 04:09:49;;;;;;;18.97;11.50;;;11.50;99.90;;;;;;4980072;28;20442;-84
2021/05/13 04:12:15;;;;;;;23.77;15.13;;;12.20;99.90;;;;;;4982771;28;20461;-84
2021/05/13 04:14:41;;;;;;;12.43;7.90;;;11.40;99.90;;;;;;4978281;28;20442;-84
2021/05/13 04:17:08;;;;;;;10.13;7.43;;;11.40;99.90;;;;;;4976720;28;20206;-84
2021/05/13 04:19:34;;;;;;;10.03;6.87;;;12.10;99.90;;;;;;4976544;28;20504;-84
2021/05/13 04:22:01;;;;;;;11.70;7.73;;;12.00;99.90;;;;;;4980327;28;20449;-84
2021/05/13 04:24:27;;;;;;;10.47;7.50;;;11.40;99.90;;;;;;4981965;28;20480;-84
2021/05/13 04:26:53;;;;;;;13.97;8.57;;;11.80;99.90;;;;;;4978101;28;20499;-84
2021/05/13 04:29:19;;;;;;;15.90;8.70;;;11.30;99.90;;;;;;4980849;28;20499;-84
2021/05/13 04:31:46;;;;;;;14.33;7.67;;;11.20;99.90;;;;;;4978797;28;20464;-84
2021/05/13 04:34:12;;;;;;;10.73;7.90;;;11.60;99.90;;;;;;4979892;28;20496;-85
2021/05/13 04:36:39;;;;;;;8.87;7.30;;;12.00;99.90;;;;;;4980603;28;20445;-84
2021/05/13 04:39:05;;;;;;;7.97;7.17;;;12.00;99.90;;;;;;4988720;28;20468;-84
2021/05/13 04:41:33;;;;;;;12.07;7.90;;;12.00;99.90;;;;;;4991857;28;20445;-84
2021/05/13 04:44:01;;;;;;;11.00;7.50;;;11.90;99.90;;;;;;4989271;28;20457;-84
2021/05/13 04:46:29;;;;;;;11.50;6.83;;;13.30;99.90;;;;;;4989355;28;20445;-84
2021/05/13 04:49:15;;;;;;;12.23;7.70;;;12.00;99.90;;;;;;4996573;28;20446;-84
2021/05/13 04:51:42;;;;;;;11.13;7.30;;;11.00;99.90;;;;;;4995520;28;20438;-84
2021/05/13 04:54:08;;;;;;;10.37;7.50;;;;;;;;;;4984534;28;20460;-84
2021/05/13 04:56:35;;;;;;;9.30;7.17;;;;;;;;;;4984894;28;20483;-84
2021/05/13 04:59:09;;;;;;;10.43;8.00;;;;;;;;;;4985261;28;20496;-85
2021/05/13 05:01:36;;;;;;;9.03;7.30;;;11.90;99.90;;;;;;4984951;28;20473;-83
2021/05/13 05:04:03;;;;;;;12.10;7.13;;;;;;;;;;4982717;28;20498;-84
2021/05/13 05:06:29;;;;;;;10.43;7.50;;;11.90;99.90;;;;;;4988360;28;20978;-84
2021/05/13 05:08:56;;;;;;;14.77;8.07;;;12.00;99.90;;;;;;4988942;28;20445;-84
2021/05/13 05:11:22;;;;;;;9.93;7.37;;;11.90;99.90;;;;;;4992921;28;20459;-84
2021/05/13 05:13:49;;;;;;;7.87;6.73;;;11.80;99.90;;;;;;4988228;28;20450;-84
2021/05/13 05:16:16;;;;;;;10.50;6.93;;;11.60;99.90;;;;;;4997786;28;20449;-83
2021/05/13 05:18:42;;;;;;;7.87;6.13;;;11.50;99.90;;;;;;4998049;28;20448;-84
2021/05/13 05:21:09;;;;;;;8.47;6.70;;;11.90;99.90;;;;;;4998039;28;20437;-84
2021/05/13 05:23:36;;;;;;;7.55;6.78;;;11.90;99.90;;;;;;4994903;28;20450;-83
2021/05/13 05:26:02;;;;;;;9.27;7.00;;;11.90;99.90;;;;;;4998646;28;20236;-83
2021/05/13 05:28:28;;;;;;;13.20;7.50;;;11.90;99.90;;;;;;4997728;28;20453;-84
2021/05/13 05:30:54;;;;;;;9.70;6.93;;;12.00;99.90;;;;;;4997663;28;20441;-83
2021/05/13 05:33:22;;;;;;;9.27;7.70;;;11.90;99.90;;;;;;4999017;28;20428;-83
2021/05/13 05:35:48;;;;;;;8.77;7.10;;;11.30;99.90;;;;;;4999043;28;20524;-83
2021/05/13 05:38:15;;;;;;;9.50;6.73;;;11.90;99.90;;;;;;4998916;28;20444;-83
2021/05/13 05:40:41;;;;;;;7.37;6.50;;;11.80;99.90;;;;;;4999152;28;20465;-84
2021/05/13 05:43:07;;;;;;;9.23;7.93;;;12.10;99.90;;;;;;4999361;28;20433;-82
2021/05/13 05:45:34;;;;;;;8.13;6.40;;;11.50;99.90;;;;;;4998564;28;20501;-83
2021/05/13 05:48:00;;;;;;;7.43;6.07;;;11.50;99.90;;;;;;4998854;28;20452;-82
2021/05/13 05:50:28;;;;;;;11.00;6.80;;;11.60;99.90;;;;;;4998674;28;20449;-85
2021/05/13 05:52:55;;;;;;;6.77;5.93;;;;;;;;;;4998216;28;20467;-83
2021/05/13 05:55:22;;;;;;;7.60;6.80;;;12.00;99.90;;;;;;4996167;28;20484;-83
2021/05/13 05:57:49;;;;;;;8.63;6.80;;;12.10;99.90;;;;;;4995577;28;20435;-85
2021/05/13 06:00:17;;;;;;;9.00;7.03;;;11.90;99.90;;;;;;4988416;28;20484;-84
2021/05/13 06:02:43;;;;;;;10.40;7.15;;;12.00;99.90;;;;;;4990233;28;20451;-85
2021/05/13 06:05:10;;;;;;;11.27;7.68;;;12.00;99.90;;;;;;4981130;28;20446;-84
2021/05/13 06:07:36;;;;;;;8.67;7.30;;;11.80;99.90;;;;;;4983381;28;20209;-84
2021/05/13 06:10:05;;;;;;;8.33;6.63;;;12.00;99.90;;;;;;4990629;28;20441;-84
2021/05/13 06:12:32;;;;;;;10.03;7.23;;;12.30;99.90;;;;;;4995421;28;20453;-83
2021/05/13 06:14:59;;;;;;;10.60;7.33;;;11.30;99.90;;;;;;4996476;28;20461;-83
2021/05/13 06:17:27;;;;;;;14.67;8.40;;;;;;;;;;4996615;28;20484;-85
2021/05/13 06:19:55;;;;;;;9.10;7.13;;;11.60;99.90;;;;;;4996585;28;20476;-83
2021/05/13 06:22:21;;;;;;;11.20;8.03;;;11.30;99.90;;;;;;4998890;28;20448;-83
2021/05/13 06:24:47;;;;;;;11.50;6.77;;;11.60;99.90;;;;;;4995967;28;20465;-83
2021/05/13 06:27:13;;;;;;;10.00;7.33;;;11.30;99.90;;;;;;4992028;28;20506;-84
2021/05/13 06:29:40;;;;;;;11.90;7.03;;;11.30;99.90;;;;;;4985839;28;20437;-84
2021/05/13 06:32:06;;;;;;;7.90;7.00;;;11.60;99.90;;;;;;4987661;28;20453;-84
2021/05/13 06:34:32;;;;;;;8.87;7.07;;;11.70;99.90;;;;;;4991554;28;20480;-85
2021/05/13 06:37:00;;;;;;;8.70;7.60;;;12.20;99.90;;;;;;4992808;28;20457;-85
2021/05/13 06:39:34;;;;;;;9.47;7.80;;;11.70;99.90;;;;;;4992256;28;20459;-85
2021/05/13 06:42:02;;;;;;;11.63;8.90;;;11.80;99.90;;;;;;4993597;28;20430;-85
2021/05/13 06:44:28;;;;;;;14.10;7.63;;;11.90;99.90;;;;;;4993199;28;20518;-85
2021/05/13 06:46:55;;;;;;;9.65;7.63;;;11.90;99.90;;;;;;4991159;28;20450;-83
2021/05/13 06:49:21;;;;;;;10.00;8.20;;;11.80;99.90;;;;;;4992457;28;20212;-84
2021/05/13 06:51:47;;;;;;;10.63;9.07;;;11.90;99.90;;;;;;4992990;28;20449;-83
2021/05/13 06:54:14;;;;;;;7.53;6.67;;;11.80;99.90;;;;;;4991094;28;20440;-84
2021/05/13 06:56:41;;;;;;;8.60;7.80;;;11.90;99.90;;;;;;4992292;28;20445;-84
2021/05/13 06:59:07;;;;;;;9.80;8.80;;;11.80;99.90;;;;;;4991692;28;20575;-85
2021/05/13 07:01:34;;;;;;;12.70;9.47;;;11.20;99.90;;;;;;4990280;28;20446;-84
2021/05/13 07:04:04;;;;;;;14.60;9.37;;;;;;;;;;4991899;28;20489;-85
2021/05/13 07:06:31;;;;;;;9.97;8.93;;;12.00;99.90;;;;;;4991122;28;20815;-85
2021/05/13 07:08:57;;;;;;;10.23;8.80;;;11.90;99.90;;;;;;4993121;28;20822;-84
2021/05/13 07:11:23;;;;;;;11.67;8.93;;;11.90;99.90;;;;;;4989587;28;20465;-84
2021/05/13 07:13:49;;;;;;;11.90;9.43;;;12.00;99.90;;;;;;4990827;28;20441;-83
2021/05/13 07:16:15;;;;;;;10.83;9.50;;;;;;;;;;4990800;28;20472;-83
2021/05/13 07:18:42;;;;;;;11.67;8.73;;;;;;;;;;4989025;28;20944;-83
2021/05/13 07:21:09;;;;;;;12.57;9.50;;;11.90;99.90;;;;;;4990205;28;20485;-83
2021/05/13 07:23:35;;;;;;;13.73;10.03;;;11.90;99.90;;;;;;4989626;28;20449;-83
2021/05/13 07:26:01;;;;;;;11.23;8.20;;;11.70;99.90;;;;;;4990685;28;20477;-83
2021/05/13 07:28:27;;;;;;;11.80;9.97;;;11.80;99.90;;;;;;4982953;28;20424;-84
2021/05/13 07:30:53;;;;;;;11.27;7.70;;;11.80;99.90;;;;;;4982446;28;20424;-84
2021/05/13 07:33:19;;;;;;;9.60;7.53;;;11.80;99.90;;;;;;4982339;28;20411;-84
2021/05/13 07:35:45;;;;;;;9.63;7.33;;;11.50;99.90;;;;;;4984130;28;20478;-84
2021/05/13 07:38:13;;;;;;;10.67;7.97;;;11.80;99.90;;;;;;4984665;28;20427;-84
2021/05/13 07:40:39;;;;;;;13.90;8.40;;;11.30;99.90;;;;;;4983366;28;20556;-84
2021/05/13 07:43:06;;;;;;;9.70;7.23;;;11.60;99.90;;;;;;4983148;28;20446;-83
2021/05/13 07:45:33;;;;;;;8.90;8.00;;;11.50;99.90;;;;;;4984957;28;20472;-84
2021/05/13 07:48:00;;;;;;;9.33;7.67;;;11.50;99.90;;;;;;4983219;28;20449;-84
2021/05/13 07:50:27;;;;;;;10.80;8.67;;;;;;;;;;4982755;28;20438;-83
2021/05/13 07:52:56;;;;;;;9.13;7.60;;;11.50;99.90;;;;;;4981254;28;20445;-83
2021/05/13 07:55:23;;;;;;;9.57;7.63;;;11.70;99.90;;;;;;4979957;28;20469;-84
2021/05/13 07:57:49;;;;;;;10.00;7.73;;;11.80;99.90;;;;;;4982339;28;20453;-84
2021/05/13 08:00:16;;;;;;;9.87;8.40;;;11.80;99.90;;;;;;4981870;28;20485;-84
2021/05/13 08:02:42;;;;;;;9.77;7.83;;;;;;;;;;4983047;28;20466;-84
2021/05/13 08:05:11;;;;;;;11.47;8.07;;;11.80;99.90;;;;;;4983060;28;20488;-85
2021/05/13 08:07:37;;;;;;;10.43;8.70;;;;;;;;;;4983866;28;20457;-84
2021/05/13 08:10:05;;;;;;;11.57;8.73;;;11.90;99.90;;;;;;4985222;28;20434;-84
2021/05/13 08:12:32;;;;;;;12.63;8.63;;;12.00;99.90;;;;;;4985726;28;20449;-84
2021/05/13 08:14:58;;;;;;;10.33;9.27;;;11.80;99.90;;;;;;4985011;28;20481;-84
2021/05/13 08:17:24;;;;;;;11.87;9.50;;;10.80;99.90;;;;;;4980282;28;20804;-84
2021/05/13 08:19:50;;;;;;;10.80;8.90;;;12.10;99.90;;;;;;4979352;28;20901;-84
2021/05/13 08:22:17;;;;;;;12.10;9.60;;;11.20;99.90;;;;;;4979130;28;20464;-83
2021/05/13 08:24:43;;;;;;;14.57;10.27;;;;;;;;;;4996859;23;20477;-86
2021/05/13 08:27:10;;;;;;;10.47;9.20;;;11.80;99.90;;;;;;5105428;28;20448;-85
2021/05/13 08:29:40;;;;;;;10.70;9.37;;;11.70;99.90;;;;;;5107358;28;20436;-86
2021/05/13 08:32:06;;;;;;;11.13;9.13;;;11.70;99.90;;;;;;5103422;28;20448;-86
2021/05/13 08:34:33;;;;;;;9.70;8.63;;;;;;;;;;5102115;28;20440;-85
2021/05/13 08:36:59;;;;;;;13.20;8.70;;;;;;;;;;5102392;28;20450;-86
2021/05/13 08:39:26;;;;;;;12.07;8.93;;;11.80;99.90;;;;;;5102964;28;20483;-85
2021/05/13 08:41:52;;;;;;;12.53;8.30;;;11.90;99.90;;;;;;5105994;28;20447;-86
2021/05/13 08:44:20;;;;;;;11.57;8.60;;;11.80;99.90;;;;;;5105958;28;20473;-86
2021/05/13 08:46:47;;;;;;;14.50;9.17;;;11.00;99.90;;;;;;5099658;28;20472;-86
2021/05/13 08:49:13;;;;;;;11.10;8.87;;;11.70;99.90;;;;;;5100263;28;20444;-86
2021/05/13 08:51:42;;;;;;;13.80;8.47;;;11.70;99.90;;;;;;5100925;28;20469;-86
2021/05/13 08:54:09;;;;;;;10.33;7.60;;;;;;;;;;5101927;28;20818;-85
2021/05/13 08:56:35;;;;;;;11.47;8.03;;;11.70;99.90;;;;;;5101862;28;20470;-87
2021/05/13 08:59:04;;;;;;;11.83;8.20;;;11.70;99.90;;;;;;5102236;28;20455;-85
2021/05/13 09:01:32;;;;;;;7.87;7.17;;;11.80;99.90;;;;;;5102665;28;20489;-87
2021/05/13 09:04:01;;;;;;;8.87;7.67;;;11.00;99.90;;;;;;5100460;28;20458;-86
2021/05/13 09:06:33;;;;;;;8.03;7.17;;;11.70;99.90;;;;;;5100436;28;20471;-87
2021/05/13 09:09:10;;;;;;;8.90;7.13;;;10.60;99.90;;;;;;5100570;28;20423;-85
2021/05/13 09:11:36;;;;;;;10.70;8.13;;;;;;;;;;5101178;28;20500;-86
2021/05/13 09:14:03;;;;;;;10.73;7.37;;;11.80;99.90;;;;;;5105871;28;20924;-87
2021/05/13 09:16:34;;;;;;;5.90;5.30;;;11.80;99.90;;;;;;5103184;28;20471;-87
2021/05/13 09:19:22;;;;;;;7.83;7.03;;;11.70;99.90;;;;;;5100885;28;20432;-87
2021/05/13 09:21:58;;;;;;;7.27;6.10;;;11.50;99.90;;;;;;5100053;28;21028;-86
2021/05/13 09:24:46;;;;;;;4.80;4.33;;;11.50;99.90;;;;;;5102008;28;20452;-85
2021/05/13 09:27:16;;;;;;;6.40;5.67;;;11.50;99.90;;;;;;5101976;28;20439;-85
2021/05/13 09:29:43;;;;;;;9.13;6.53;;;11.50;99.90;;;;;;5103026;28;20525;-86
2021/05/13 09:32:17;;;;;;;7.70;6.10;;;11.40;99.90;;;;;;5108815;28;20501;-86
2021/05/13 09:34:44;;;;;;;6.27;5.67;;;;;;;;;;5110400;28;20420;-86
2021/05/13 09:37:11;;;;;;;6.33;5.70;;;11.60;99.90;;;;;;5112956;28;20423;-85
2021/05/13 09:39:47;;;;;;;9.30;5.17;;;11.60;99.90;;;;;;5118375;28;20445;-84
2021/05/13 09:42:17;;;;;;;5.20;4.47;;;10.30;99.90;;;;;;5119244;28;20418;-86
2021/05/13 09:44:43;;;;;;;5.77;4.40;;;;;;;;;;5106945;28;20426;-87
2021/05/13 09:47:19;;;;;;;5.17;4.67;;;11.40;99.90;;;;;;5106814;28;20462;-86
2021/05/13 09:49:57;;;;;;;7.40;5.20;;;11.50;99.90;;;;;;5105376;28;20979;-85
2021/05/13 09:52:42;;;;;;;5.93;3.93;;;10.70;99.90;;;;;;5110704;28;20473;-84
2021/05/13 09:55:13;;;;;;;4.87;4.20;;;11.10;99.90;;;;;;5108149;28;20475;-86
2021/05/13 09:57:40;;;;;;;4.53;4.13;;;11.60;99.90;;;;;;5105518;28;20443;-86
2021/05/13 10:00:09;;;;;;;5.70;3.83;;;11.40;99.90;;;;;;5106181;28;20981;-86
2021/05/13 10:02:35;;;;;;;5.40;3.60;;;;;;;;;;5103935;28;20418;-85
2021/05/13 10:05:04;;;;;;;4.07;3.70;;;11.40;99.90;;;;;;5104735;28;20491;-85
2021/05/13 10:07:31;;;;;;;3.57;3.27;;;;;;;;;;5105940;28;20414;-86
2021/05/13 10:09:57;;;;;;;4.17;3.57;;;11.40;99.90;;;;;;5106574;28;20540;-86
2021/05/13 10:12:24;;;;;;;3.80;3.40;;;11.40;99.90;;;;;;5108236;28;20445;-86
2021/05/13 10:14:52;;;;;;;3.57;3.27;;;11.70;99.90;;;;;;5106912;28;20489;-85
2021/05/13 10:17:19;;;;;;;4.67;3.67;;;;;;;;;;5109758;28;20439;-85
2021/05/13 10:19:48;;;;;;;4.10;3.80;;;11.50;99.90;;;;;;5108171;28;20517;-85
2021/05/13 10:22:16;;;;;;;4.47;3.77;;;11.70;99.90;;;;;;5108708;28;20440;-85
2021/05/13 10:24:43;;;;;;;5.63;4.33;;;;;;;;;;5104622;28;20942;-85
2021/05/13 10:27:16;;;;;;;8.37;5.67;;;11.40;99.90;;;;;;5103465;28;20447;-85
2021/05/13 10:29:42;;;;;;;8.10;5.50;;;11.40;99.90;;;;;;5102866;28;20432;-85
2021/05/13 10:32:13;;;;;;;8.75;6.45;;;11.20;99.90;;;;;;5109694;28;20441;-85
2021/05/13 10:34:54;;;;;;;7.30;6.60;;;11.30;99.90;;;;;;5111076;28;20261;-84
2021/05/13 10:37:30;;;;;;;8.90;6.60;;;11.40;99.90;;;;;;5117794;28;20491;-84
2021/05/13 10:40:23;;;;;;;8.30;6.27;;;11.40;99.90;;;;;;5118088;28;20497;-85
2021/05/13 10:42:58;;;;;;;7.40;6.22;;;11.40;99.90;;;;;;5105094;28;20437;-84
2021/05/13 10:45:35;;;;;;;10.07;7.03;;;10.30;99.90;;;;;;5115848;28;20221;-84
2021/05/13 10:48:26;;;;;;;6.70;6.00;;;11.20;99.90;;;;;;5111582;28;20474;-84
2021/05/13 10:50:58;;;;;;;7.50;6.43;;;11.20;99.90;;;;;;5086297;28;20447;-84
2021/05/13 10:53:45;;;;;;;7.80;6.97;;;11.60;99.90;;;;;;5106891;28;20410;-85
2021/05/13 10:56:23;;;;;;;11.60;7.60;;;11.50;99.90;;;;;;5107031;28;20477;-84
2021/05/13 10:58:59;;;;;;;11.27;6.93;;;11.60;99.90;;;;;;5108403;28;20428;-85
2021/05/13 11:01:37;;;;;;;7.13;6.03;;;11.70;99.90;;;;;;5106509;28;20465;-84
2021/05/13 11:04:40;;;;;;;8.40;6.93;;;11.40;99.90;;;;;;5107239;28;20451;-85
2021/05/13 11:07:31;;;;;;;7.13;6.43;;;11.60;99.90;;;;;;5106339;28;20416;-86
2021/05/13 11:10:00;;;;;;;7.13;6.43;;;11.00;99.90;;;;;;5110812;28;20448;-84
2021/05/13 11:12:28;;;;;;;8.00;6.80;;;11.70;99.90;;;;;;5108636;28;20493;-85
2021/05/13 11:15:12;;;;;;;9.90;7.70;;;11.30;99.90;;;;;;5107858;28;20486;-83
2021/05/13 11:18:09;;;;;;;8.60;6.00;;;11.40;99.90;;;;;;5105238;28;20442;-83
2021/05/13 11:20:55;;;;;;;9.98;6.80;;;11.50;99.90;;;;;;5102080;28;20455;-84
2021/05/13 11:23:27;;;;;;;8.00;6.43;;;11.50;99.90;;;;;;5103739;28;20201;-83
2021/05/13 11:25:56;;;;;;;7.97;6.67;;;11.40;99.90;;;;;;5101789;28;20483;-84
2021/05/13 11:28:34;;;;;;;11.27;7.30;;;11.50;99.90;;;;;;5101698;28;20478;-86
2021/05/13 11:31:17;;;;;;;11.30;7.43;;;11.10;99.90;;;;;;5106583;28;20459;-85
2021/05/13 11:33:47;;;;;;;11.63;8.17;;;12.40;99.90;;;;;;5103616;28;20507;-85
2021/05/13 11:36:23;;;;;;;12.47;9.40;;;11.50;99.90;;;;;;5104450;28;20478;-86
2021/05/13 11:38:57;;;;;;;10.13;8.57;;;11.50;99.90;;;;;;5105309;28;20432;-86
2021/05/13 11:41:24;;;;;;;9.33;7.87;;;11.40;99.90;;;;;;5104955;28;20479;-85
2021/05/13 11:43:51;;;;;;;10.33;8.23;;;;;;;;;;5105170;28;20443;-85
2021/05/13 11:46:19;;;;;;;13.23;9.67;;;11.60;99.90;;;;;;5106357;28;20486;-86
2021/05/13 11:48:47;;;;;;;10.97;9.20;;;11.70;99.90;;;;;;5108864;28;20499;-84
2021/05/13 11:51:16;;;;;;;14.47;9.23;;;11.70;99.90;;;;;;5113471;28;20510;-83
2021/05/13 11:53:44;;;;;;;10.80;8.70;;;11.60;99.90;;;;;;5113203;28;20443;-86
2021/05/13 11:56:13;;;;;;;9.90;7.97;;;11.60;99.90;;;;;;5116269;28;20456;-84
2021/05/13 11:58:48;;;;;;;9.03;8.13;;;11.70;99.90;;;;;;5114883;28;20452;-85
2021/05/13 12:01:20;;;;;;;10.73;8.07;;;11.60;99.90;;;;;;5114877;28;20920;-84
2021/05/13 12:03:48;;;;;;;13.90;9.07;;;11.40;99.90;;;;;;5113637;28;20418;-85
2021/05/13 12:06:14;;;;;;;9.67;7.83;;;11.50;99.90;;;;;;5115242;28;20820;-85
2021/05/13 12:08:41;;;;;;;11.47;7.67;;;;;;;;;;5115522;28;20456;-84
2021/05/13 12:11:21;;;;;;;8.93;7.13;;;11.50;99.90;;;;;;5114791;28;20444;-85
2021/05/13 12:13:49;;;;;;;10.90;7.23;;;11.40;99.90;;;;;;5111130;28;20423;-85
2021/05/13 12:16:16;;;;;;;10.63;8.70;;;11.40;99.90;;;;;;5103342;28;20977;-86
2021/05/13 12:18:44;;;;;;;10.77;8.33;;;11.60;99.90;;;;;;5106381;28;20443;-86
2021/05/13 12:21:12;;;;;;;12.50;8.37;;;11.50;99.90;;;;;;5106072;28;20487;-87
2021/05/13 12:23:40;;;;;;;11.90;8.07;;;11.80;99.90;;;;;;5103061;28;20954;-85
2021/05/13 12:26:06;;;;;;;9.70;8.13;;;11.40;99.90;;;;;;5101675;28;20475;-86
2021/05/13 12:28:33;;;;;;;11.97;7.73;;;12.00;99.90;;;;;;5102394;28;20448;-84
2021/05/13 12:31:00;;;;;;;7.37;6.47;;;11.40;99.90;;;;;;5102911;28;20440;-87
2021/05/13 12:33:29;;;;;;;7.87;7.00;;;11.80;99.90;;;;;;5112668;28;20641;-86
2021/05/13 12:35:56;;;;;;;7.20;6.43;;;11.80;99.90;;;;;;5115958;28;20523;-81
2021/05/13 12:38:23;;;;;;;9.63;7.57;;;11.90;99.90;;;;;;5115822;28;20443;-86
2021/05/13 12:40:50;;;;;;;7.30;6.37;;;;;;;;;;5111894;28;20476;-85
2021/05/13 12:43:18;;;;;;;7.30;6.33;;;11.80;99.90;;;;;;5114843;28;20465;-84
2021/05/13 12:45:47;;;;;;;9.07;6.43;;;11.70;99.90;;;;;;5114572;28;20451;-85
2021/05/13 12:48:22;;;;;;;6.80;6.00;;;11.60;99.90;;;;;;5114222;28;20450;-85
2021/05/13 12:51:01;;;;;;;9.43;7.37;;;11.80;99.90;;;;;;5110966;28;20420;-83
2021/05/13 12:53:28;;;;;;;8.83;7.30;;;11.90;99.90;;;;;;5107904;28;20435;-85
2021/05/13 12:55:55;;;;;;;6.37;5.87;;;;;;;;;;5106078;28;20463;-86
2021/05/13 12:58:25;;;;;;;8.20;5.90;;;11.70;99.90;;;;;;5112068;28;20448;-86
2021/05/13 13:00:56;;;;;;;10.50;7.53;;;11.90;99.90;;;;;;5111140;28;20497;-84